Flight Track Log - Related Links

Times and Time Zones

All times are in EDT time to prevent confusion due to time zone crossing. See the ELJ309 flight status page for this flight to view local times or setup timezone preferences in your user account.

Time Position Orientation Groundspeed Altitude Reporting Facility
EDT Latitude Longitude Course Direction KTS MPH feet Rate Location/Type
Mon 01:24:17 PM 39.8500 -104.7333 285° West 182 209 6,400  Level Denver TRACON
Mon 01:25:17 PM 39.8667 -104.8167 285° West 235 270 9,300 2,051 Climbing Denver TRACON
Mon 01:26:14 PM 39.8978 -104.8753 305° West 231 266 10,400 1,261 Climbing Denver Center
Mon 01:27:16 PM 39.9481 -104.9325 319° Northwest 242 278 11,800 2,032 Climbing Denver Center
Mon 01:28:18 PM 40.0231 -104.9461 352° North 261 300 14,600 2,565 Climbing Denver Center
Mon 01:29:20 PM 40.1006 -104.9258 11° North 293 337 17,100 2,439 Climbing Denver Center
Mon 01:30:21 PM 40.1731 -104.8536 37° Northeast 304 350 19,600 1,951 Climbing Denver Center
Mon 01:31:23 PM 40.2636 -104.8144 18° North 352 405 21,100 1,258 Climbing Denver Center
Mon 01:32:25 PM 40.3672 -104.8067 North 374 430 22,200 1,403 Climbing Denver Center
Mon 01:33:27 PM 40.4831 -104.8194 355° North 385 443 24,000 1,694 Climbing Denver Center
Mon 01:34:29 PM 40.5789 -104.8314 355° North 366 421 25,700 1,548 Climbing Denver Center
Mon 01:35:31 PM 40.6869 -104.8422 356° North 390 449 27,200 1,210 Climbing Denver Center
Mon 01:36:33 PM 40.7956 -104.8547 355° North 389 448 28,200 1,065 Climbing Denver Center
Mon 01:37:35 PM 40.9253 -104.9183 340° North 412 474 29,400 1,210 Climbing Denver Center
Mon 01:38:37 PM 41.0300 -104.9692 340° North 420 483 30,700 1,403 Climbing Denver Center
Mon 01:39:39 PM 41.1519 -105.0308 339° North 420 483 32,300 1,500 Climbing Denver Center
Mon 01:40:41 PM 41.2556 -105.0803 340° North 416 479 33,800 823 Climbing Denver Center
Mon 01:41:43 PM 41.3781 -105.1403 340° North 418 481 34,000 97 Climbing Denver Center
Mon 01:42:45 PM 41.4925 -105.1972 340° North 447 514 34,000  Level Denver Center
Mon 01:43:47 PM 41.6064 -105.2556 339° North 456 525 34,000  Level Denver Center
Mon 01:44:49 PM 41.7400 -105.3192 340° North 455 524 34,000  Level Denver Center
Mon 01:45:51 PM 41.8550 -105.3733 341° North 455 524 34,000  Level Denver Center
Mon 01:46:53 PM 41.9889 -105.4378 340° North 458 527 34,000  Level Denver Center
Mon 01:47:55 PM 42.1031 -105.4936 340° North 457 526 34,000  Level Denver Center
Mon 01:48:57 PM 42.2381 -105.5575 341° North 458 527 34,000  Level Denver Center
Mon 01:49:59 PM 42.3531 -105.6150 340° North 460 529 34,000  Level Denver Center
Mon 01:51:01 PM 42.4686 -105.6703 341° North 459 528 34,000  Level Denver Center
Mon 01:52:03 PM 42.6017 -105.7350 340° North 455 524 34,000  Level Denver Center
Mon 01:53:05 PM 42.7197 -105.7908 341° North 463 533 34,000  Level Denver Center
Mon 01:54:06 PM 42.8525 -105.8572 340° North 457 526 34,000  Level Denver Center
Mon 01:55:08 PM 42.9658 -105.9136 340° North 453 521 34,000 -484 Level Denver Center
Mon 01:56:10 PM 43.0992 -105.9794 340° North 454 522 33,000 -1,161 Descending Denver Center
Mon 01:57:12 PM 43.2114 -106.0356 340° North 450 518 31,600 -1,500 Descending Denver Center
Mon 01:58:14 PM 43.3381 -106.1000 340° North 438 504 29,900 -1,452 Descending Denver Center
Mon 01:59:16 PM 43.4292 -106.1453 340° North 435 501 28,600 -1,548 Descending Denver Center
Mon 02:00:18 PM 43.5558 -106.2089 340° North 435 501 26,700 -1,984 Descending Denver Center
Mon 02:01:20 PM 43.6825 -106.2731 340° North 433 498 24,500 -1,984 Descending Denver Center
Mon 02:02:22 PM 43.7892 -106.3272 340° North 429 494 22,600 -2,000 Descending Denver Center
Mon 02:03:05 PM 43.8792 -106.3686 342° North 425 489 21,000 -2,000 Descending Salt Lake Center
Mon 02:04:07 PM 43.9975 -106.3711 359° North 432 497 19,100 -2,129 Descending Salt Lake Center
Mon 02:05:09 PM 44.1272 -106.3744 359° North 426 490 16,600 -2,129 Descending Salt Lake Center
Mon 02:06:11 PM 44.2311 -106.3636 North 407 468 14,700 -2,032 Descending Salt Lake Center
Mon 02:07:13 PM 44.3425 -106.4050 345° North 386 444 12,400 -2,226 Descending Salt Lake Center

Login

Don't have an account? Register now (free) for customized features, flight alerts, and more!